Time;durP1;ratioP1;P1;durP2;ratioP2;P2;SDS_P1;SDS_P2;PMS_P1;PMS_P2;Temp;Humidity;BMP_temperature;BMP_pressure;BME280_temperature;BME280_humidity;BME280_pressure;Samples;Min_cycle;Max_cycle;Signal;HPM_P1;HPM_P2
2022/07/20 00:00:37;;;;;;;6.20;1.70;;;;;;;14.12;96.89;101102.38;5031275;28;20055;-79
2022/07/20 00:03:09;;;;;;;4.53;1.90;;;;;;;13.99;96.68;101084.13;5036645;28;20029;-79
2022/07/20 00:05:35;;;;;;;4.88;1.77;;;;;;;14.04;96.74;101090.66;5034604;28;20060;-79
2022/07/20 00:08:01;;;;;;;4.88;1.75;;;;;;;14.06;96.97;101098.59;5026048;28;20043;-79
2022/07/20 00:13:12;;;;;;;5.38;1.88;;;;;;;14.05;97.19;101103.16;5051493;28;20036;-79
2022/07/20 00:15:39;;;;;;;3.25;1.42;;;;;;;14.01;97.23;101104.56;5019968;28;20414;-79
2022/07/20 00:18:04;;;;;;;6.72;1.90;;;;;;;14.04;97.01;101106.88;5052150;28;20029;-79
2022/07/20 00:20:30;;;;;;;2.97;1.48;;;;;;;14.04;96.54;101111.44;5055099;28;20063;-79
2022/07/20 00:22:59;;;;;;;4.50;1.75;;;;;;;14.07;96.22;101120.00;5031517;28;20028;-79
2022/07/20 00:25:25;;;;;;;2.85;1.75;;;;;;;14.08;95.72;101124.41;5030610;28;20071;-81
2022/07/20 00:27:53;;;;;;;5.70;2.00;;;;;;;14.03;95.75;101107.91;5051082;28;20532;-79
2022/07/20 00:30:19;;;;;;;6.57;1.83;;;;;;;14.04;95.60;101112.28;5018163;28;20406;-79
2022/07/20 00:32:45;;;;;;;4.20;1.77;;;;;;;13.78;95.19;101074.13;5032825;28;20036;-79
2022/07/20 00:35:14;;;;;;;3.75;1.60;;;;;;;14.06;94.96;101118.34;5017563;28;20029;-79
2022/07/20 00:37:40;;;;;;;3.70;1.23;;;;;;;14.10;94.85;101121.50;5021186;28;20052;-80
2022/07/20 00:40:07;;;;;;;4.22;1.27;;;;;;;14.11;94.58;101136.72;5016319;28;20033;-80
2022/07/20 00:42:34;;;;;;;3.75;1.08;;;;;;;14.07;94.67;101130.81;5037957;28;20044;-79
2022/07/20 00:44:59;;;;;;;2.90;1.25;;;;;;;14.08;94.74;101135.22;5053003;28;20090;-79
2022/07/20 00:47:25;;;;;;;2.47;1.50;;;;;;;14.06;94.63;101131.84;5036937;28;20036;-79
2022/07/20 00:49:51;;;;;;;4.97;1.60;;;;;;;14.06;95.15;101141.84;5018123;28;20028;-79
2022/07/20 00:52:17;;;;;;;5.53;1.55;;;;;;;14.03;95.47;101137.66;5053087;28;20028;-81
2022/07/20 00:54:45;;;;;;;7.25;1.90;;;;;;;13.89;95.84;101127.69;5038914;28;20040;-79
2022/07/20 00:57:10;;;;;;;4.60;1.40;;;;;;;14.01;95.74;101139.69;5033345;28;20457;-79
2022/07/20 00:59:36;;;;;;;2.97;1.15;;;;;;;13.93;96.16;101125.47;5048546;28;20116;-80
2022/07/20 01:02:01;;;;;;;4.75;1.45;;;;;;;14.01;96.41;101138.88;5063313;28;20540;-80
2022/07/20 01:04:27;;;;;;;5.25;1.67;;;;;;;13.94;96.79;101143.34;5014764;28;20486;-79
2022/07/20 01:06:53;;;;;;;4.10;1.50;;;;;;;13.99;97.10;101149.03;5020024;28;20033;-79
2022/07/20 01:09:20;;;;;;;3.58;1.65;;;;;;;13.95;97.09;101140.47;5033221;28;20923;-79
2022/07/20 01:11:46;;;;;;;3.28;1.80;;;;;;;13.92;97.33;101146.25;5052673;28;20070;-80
2022/07/20 01:14:11;;;;;;;3.22;1.90;;;;;;;13.91;97.55;101147.25;5034770;28;20036;-79
2022/07/20 01:16:38;;;;;;;4.50;1.50;;;;;;;13.90;97.88;101144.75;5069474;28;20044;-79
2022/07/20 01:19:05;;;;;;;5.25;1.50;;;;;;;13.91;98.13;101155.38;5013414;28;20469;-80
2022/07/20 01:21:31;;;;;;;3.10;1.48;;;;;;;13.55;98.30;101102.09;5056798;28;20036;-80
2022/07/20 01:23:57;;;;;;;3.78;1.42;;;;;;;13.77;98.42;101131.91;5018073;28;20032;-79
2022/07/20 01:26:23;;;;;;;2.65;1.10;;;;;;;13.86;98.44;101146.97;5016405;28;20060;-78
2022/07/20 01:28:49;;;;;;;3.25;1.42;;;;;;;13.79;98.34;101136.09;5016224;28;20082;-79
2022/07/20 01:31:15;;;;;;;4.70;1.30;;;;;;;13.84;98.54;101149.88;5038174;28;20068;-79
2022/07/20 01:33:40;;;;;;;2.28;1.23;;;;;;;13.86;98.97;101146.97;5034422;28;20478;-80
2022/07/20 01:36:07;;;;;;;3.88;1.60;;;;;;;13.80;99.24;101148.56;5015316;28;20061;-79
2022/07/20 01:38:32;;;;;;;4.25;1.70;;;;;;;13.83;99.62;101156.31;5044702;28;20421;-79
2022/07/20 01:40:58;;;;;;;3.25;1.30;;;;;;;13.87;99.31;101161.38;5032461;28;20048;-80
2022/07/20 01:43:23;;;;;;;2.85;1.55;;;;;;;13.70;99.41;101137.22;5054719;28;20020;-80
2022/07/20 01:45:49;;;;;;;3.88;1.45;;;;;;;13.85;99.43;101161.53;5069629;28;20116;-79
2022/07/20 01:48:15;;;;;;;3.83;1.27;;;;;;;13.82;99.58;101160.03;5050357;28;20045;-80
2022/07/20 01:50:40;;;;;;;4.78;1.38;;;;;;;13.81;99.38;101162.91;5049243;28;20036;-79
2022/07/20 01:53:07;;;;;;;3.08;1.20;;;;;;;13.79;99.18;101156.88;5031374;28;20058;-80
2022/07/20 01:55:33;;;;;;;2.95;1.05;;;;;;;13.78;99.48;101157.91;5047722;28;20089;-79
2022/07/20 01:57:59;;;;;;;2.90;1.02;;;;;;;13.83;99.11;101174.41;5034488;28;20040;-80
2022/07/20 02:00:25;;;;;;;1.80;0.80;;;;;;;13.84;98.46;101171.50;5034781;28;20040;-79
2022/07/20 02:02:50;;;;;;;1.98;1.17;;;;;;;13.69;98.18;101143.66;5050905;28;20035;-79
2022/07/20 02:05:17;;;;;;;3.88;1.30;;;;;;;13.75;98.31;101161.81;5027221;28;20033;-80
2022/07/20 02:07:43;;;;;;;2.35;0.77;;;;;;;13.80;97.81;101177.47;5053392;28;20513;-78
2022/07/20 02:10:10;;;;;;;2.42;1.00;;;;;;;13.79;98.21;101190.16;5016197;28;20037;-79
2022/07/20 02:12:37;;;;;;;2.22;1.13;;;;;;;13.63;99.67;101177.66;5041749;28;20051;-79
2022/07/20 02:15:08;;;;;;;3.03;1.10;;;;;;;13.53;100.00;101170.84;5018556;28;20113;-79
2022/07/20 02:17:34;;;;;;;3.08;1.10;;;;;;;13.41;100.00;101165.06;5016573;28;20099;-79
2022/07/20 02:19:59;;;;;;;3.45;1.10;;;;;;;13.52;100.00;101188.94;5029545;28;20041;-79
2022/07/20 02:22:25;;;;;;;2.88;0.98;;;;;;;13.41;100.00;101165.06;5038064;28;20555;-79
2022/07/20 02:24:51;;;;;;;4.72;1.27;;;;;;;13.59;100.00;101200.66;5063063;28;20312;-79
2022/07/20 02:27:29;;;;;;;2.38;1.02;;;;;;;13.62;100.00;101204.84;5037345;28;20084;-80
2022/07/20 02:29:55;;;;;;;2.45;1.10;;;;;;;13.68;99.83;101198.72;5018424;28;20493;-80
2022/07/20 02:33:05;;;;;;;1.77;0.90;;;;;;;13.52;99.61;101186.22;5017031;28;20462;-79
2022/07/20 02:35:39;;;;;;;1.67;0.90;;;;;;;13.52;98.51;101170.03;5036495;28;20054;-79
2022/07/20 02:38:05;;;;;;;2.08;1.00;;;;;;;13.46;97.75;101167.22;5017274;28;20040;-79
2022/07/20 02:40:31;;;;;;;2.75;0.80;;;;;;;13.73;97.77;101204.38;5012341;28;20044;-79
2022/07/20 02:42:57;;;;;;;2.75;1.75;;;;;;;13.75;97.19;101215.88;5053440;28;20036;-79
2022/07/20 02:45:22;;;;;;;3.22;1.13;;;;;;;13.75;96.96;101206.91;5043047;28;20039;-78
2022/07/20 02:48:33;;;;;;;4.57;1.17;;;;;;;13.41;96.66;101155.09;5029689;28;20070;-79
2022/07/20 02:51:56;;;;;;;2.95;1.08;;;;;;;13.76;96.42;101214.84;5012557;28;20048;-79
2022/07/20 02:54:23;;;;;;;3.80;1.10;;;;;;;13.62;96.47;101202.16;5015109;28;20082;-78
2022/07/20 02:56:49;;;;;;;2.90;1.15;;;;;;;13.66;96.68;101211.59;5064723;28;20040;-79
2022/07/20 02:59:14;;;;;;;1.88;0.77;;;;;;;13.66;96.79;101208.03;5027789;28;20032;-79
2022/07/20 03:01:40;;;;;;;5.97;1.08;;;;;;;13.69;96.76;101215.78;5030174;28;20036;-79
2022/07/20 03:04:05;;;;;;;2.53;1.10;;;;;;;13.52;96.66;101196.19;5027086;28;20474;-80
2022/07/20 03:06:31;;;;;;;3.83;1.10;;;;;;;13.52;96.81;101199.75;5028466;28;20564;-78
2022/07/20 03:08:56;;;;;;;3.33;1.08;;;;;;;13.60;96.65;101213.16;5034440;28;20119;-79
2022/07/20 03:11:22;;;;;;;2.38;0.80;;;;;;;13.67;97.13;101223.22;5032775;28;20036;-78
2022/07/20 03:13:48;;;;;;;3.58;1.00;;;;;;;13.53;96.24;101197.88;5015968;28;20097;-78
2022/07/20 03:16:13;;;;;;;3.13;1.02;;;;;;;13.69;96.18;101226.59;5013297;28;20431;-79
2022/07/20 03:18:39;;;;;;;6.03;1.13;;;;;;;13.57;96.40;101207.28;5016561;28;20068;-79
2022/07/20 03:21:05;;;;;;;4.03;1.20;;;;;;;13.65;96.87;101220.69;5018031;28;20042;-79
2022/07/20 03:23:30;;;;;;;3.45;1.20;;;;;;;13.57;96.79;101210.81;5041809;28;20409;-79
2022/07/20 03:25:56;;;;;;;4.97;1.10;;;;;;;13.63;96.32;101218.19;5039109;28;20119;-79
2022/07/20 03:28:25;;;;;;;1.35;0.80;;;;;;;13.61;96.12;101217.53;5013934;28;20078;-79
2022/07/20 03:30:50;;;;;;;4.15;1.00;;;;;;;13.56;96.03;101216.41;5041585;28;20060;-78
2022/07/20 03:33:16;;;;;;;4.00;1.15;;;;;;;13.55;96.16;101218.28;5032941;28;20067;-78
2022/07/20 03:35:41;;;;;;;1.88;0.80;;;;;;;13.55;96.12;101220.97;5021680;28;20037;-79
2022/07/20 03:38:07;;;;;;;2.08;1.00;;;;;;;13.50;96.14;101206.34;5019382;28;20457;-79
2022/07/20 03:40:33;;;;;;;1.75;0.80;;;;;;;13.53;96.54;101216.78;5049194;28;20489;-78
2022/07/20 03:42:59;;;;;;;2.65;0.90;;;;;;;13.52;96.71;101224.06;5035786;28;20028;-78
2022/07/20 03:45:24;;;;;;;2.33;1.00;;;;;;;13.48;96.59;101213.78;5023969;28;20044;-79
2022/07/20 03:47:50;;;;;;;3.05;1.00;;;;;;;13.55;96.53;101226.38;5054291;28;20733;-79
2022/07/20 03:50:15;;;;;;;1.10;0.77;;;;;;;13.55;96.64;101226.38;5021871;28;20024;-79
2022/07/20 03:52:41;;;;;;;3.42;1.10;;;;;;;13.51;96.72;101224.22;5048108;28;20541;-79
2022/07/20 03:55:07;;;;;;;2.92;0.90;;;;;;;13.41;97.51;101219.91;5053064;28;20067;-78
2022/07/20 03:57:32;;;;;;;4.95;1.08;;;;;;;13.43;98.14;101227.84;5033680;28;20509;-79
2022/07/20 03:59:58;;;;;;;3.10;1.02;;;;;;;13.40;98.07;101226.34;5050930;28;20037;-79
2022/07/20 04:02:23;;;;;;;3.20;1.17;;;;;;;13.41;98.32;101230.72;5068754;28;20041;-78
2022/07/20 04:04:49;;;;;;;1.00;0.80;;;;;;;13.41;98.27;101229.88;5066493;28;20094;-79
2022/07/20 04:07:15;;;;;;;2.13;1.00;;;;;;;13.37;98.19;101228.59;5024414;28;20071;-79
2022/07/20 04:09:43;;;;;;;2.92;1.10;;;;;;;13.32;98.07;101226.44;5013743;28;20062;-80
2022/07/20 04:12:10;;;;;;;1.95;0.95;;;;;;;13.39;98.07;101229.25;5065052;28;20028;-79
2022/07/20 04:14:36;;;;;;;3.78;0.80;;;;;;;13.38;98.19;101233.78;5033675;28;20029;-79
2022/07/20 04:17:02;;;;;;;2.70;0.90;;;;;;;13.34;98.03;101227.09;5034077;28;20029;-79
2022/07/20 04:19:28;;;;;;;1.50;1.00;;;;;;;13.39;98.05;101253.56;5054926;28;20112;-79
2022/07/20 04:21:58;;;;;;;1.52;0.90;;;;;;;13.35;98.81;101249.53;5052893;28;20456;-78
2022/07/20 04:24:25;;;;;;;4.00;1.13;;;;;;;13.23;98.92;101242.84;5046591;28;20093;-78
2022/07/20 04:26:51;;;;;;;3.05;0.90;;;;;;;13.29;99.84;101263.78;5018334;28;20047;-79
2022/07/20 04:29:16;;;;;;;3.17;1.15;;;;;;;13.23;100.00;101267.13;5017413;28;20044;-78
2022/07/20 04:31:42;;;;;;;5.20;1.23;;;;;;;13.19;100.00;101272.06;5053117;28;20037;-78
2022/07/20 04:34:08;;;;;;;3.83;0.90;;;;;;;13.12;100.00;101271.09;5042101;28;20044;-80
2022/07/20 04:36:33;;;;;;;4.00;1.45;;;;;;;13.11;100.00;101277.53;5038223;28;20037;-79
2022/07/20 04:38:59;;;;;;;3.97;1.05;;;;;;;13.08;100.00;101272.50;5052386;28;20044;-79
2022/07/20 04:41:25;;;;;;;2.85;0.88;;;;;;;13.08;100.00;101278.72;5051196;28;20490;-78
2022/07/20 04:43:53;;;;;;;3.83;1.10;;;;;;;13.11;100.00;101285.63;5053094;28;20123;-79
2022/07/20 04:46:18;;;;;;;3.65;1.00;;;;;;;13.05;100.00;101278.25;5035876;28;20689;-79
2022/07/20 04:48:44;;;;;;;5.15;1.20;;;;;;;13.08;100.00;101286.00;5046739;28;20044;-78
2022/07/20 04:51:09;;;;;;;1.95;1.20;;;;;;;13.13;100.00;101289.84;5036250;28;20040;-79
2022/07/20 04:53:35;;;;;;;5.53;1.48;;;;;;;13.15;100.00;101293.22;5037585;28;20040;-79
2022/07/20 04:56:01;;;;;;;2.38;0.90;;;;;;;13.09;100.00;101277.69;5046313;28;20442;-79
2022/07/20 04:58:26;;;;;;;3.63;1.00;;;;;;;13.10;100.00;101284.81;5045208;28;20040;-77
2022/07/20 05:00:52;;;;;;;2.75;1.10;;;;;;;13.11;100.00;101296.44;5036360;28;20653;-78
2022/07/20 05:03:18;;;;;;;3.72;1.30;;;;;;;13.09;100.00;101298.47;5041473;28;20539;-78
2022/07/20 05:05:43;;;;;;;1.88;1.08;;;;;;;13.03;100.00;101305.44;5019500;28;20043;-78
2022/07/20 05:08:09;;;;;;;4.55;1.10;;;;;;;13.06;100.00;101304.22;5041234;28;20059;-78
2022/07/20 05:10:35;;;;;;;3.00;1.20;;;;;;;13.12;100.00;101317.84;5047907;28;20054;-78
2022/07/20 05:13:01;;;;;;;4.90;1.20;;;;;;;13.16;100.00;101329.97;5030331;28;20032;-79
2022/07/20 05:15:26;;;;;;;3.72;1.00;;;;;;;13.14;100.00;101317.66;5036519;28;20047;-79
2022/07/20 05:17:52;;;;;;;2.60;1.33;;;;;;;13.22;100.00;101338.38;5050526;28;20056;-78
2022/07/20 05:20:21;;;;;;;5.47;1.25;;;;;;;13.24;100.00;101336.34;5020010;28;20040;-79
2022/07/20 05:22:46;;;;;;;2.45;1.08;;;;;;;13.27;100.00;101338.72;5056410;28;20032;-78
2022/07/20 05:25:13;;;;;;;3.22;1.20;;;;;;;13.27;100.00;101339.56;5028050;28;20040;-79
2022/07/20 05:27:38;;;;;;;2.33;0.98;;;;;;;13.16;100.00;101329.97;5048073;28;20033;-78
2022/07/20 05:30:04;;;;;;;2.17;1.10;;;;;;;13.25;100.00;101341.56;5036734;28;20024;-79
2022/07/20 05:32:30;;;;;;;4.97;1.20;;;;;;;13.35;100.00;101352.16;5036975;28;20036;-79
2022/07/20 05:34:56;;;;;;;4.95;1.20;;;;;;;13.38;100.00;101347.22;5039816;28;20405;-79
2022/07/20 05:37:22;;;;;;;5.85;1.27;;;;;;;13.29;100.00;101336.69;5016647;28;20035;-78
2022/07/20 05:39:47;;;;;;;4.90;1.10;;;;;;;13.43;100.00;101359.38;5035334;28;20375;-78
2022/07/20 05:42:13;;;;;;;2.83;1.20;;;;;;;13.45;100.00;101360.88;5042792;28;20036;-81
2022/07/20 05:44:39;;;;;;;4.13;1.30;;;;;;;13.59;100.00;101373.59;5029128;28;20536;-78
2022/07/20 05:47:06;;;;;;;1.50;1.00;;;;;;;13.66;100.00;101372.88;5049189;28;20202;-77
2022/07/20 05:49:36;;;;;;;4.60;1.10;;;;;;;13.72;100.00;101372.97;5044621;28;20032;-78
2022/07/20 05:52:03;;;;;;;4.93;1.48;;;;;;;13.81;100.00;101376.44;5030074;28;20135;-78
2022/07/20 05:54:29;;;;;;;3.22;1.10;;;;;;;13.88;100.00;101380.13;5047167;28;20040;-78
2022/07/20 05:56:54;;;;;;;3.40;1.40;;;;;;;13.95;100.00;101378.38;5034863;28;20082;-78
2022/07/20 05:59:20;;;;;;;3.30;1.10;;;;;;;14.03;99.78;101383.69;5038220;28;20021;-78
2022/07/20 06:01:45;;;;;;;1.90;0.85;;;;;;;14.14;99.77;101392.41;5036626;28;20130;-80
2022/07/20 06:04:12;;;;;;;3.17;1.38;;;;;;;14.12;98.89;101389.03;5035204;28;20060;-78
2022/07/20 06:06:38;;;;;;;4.60;1.00;;;;;;;14.15;97.70;101383.25;5038978;28;20047;-79
2022/07/20 06:09:05;;;;;;;3.72;1.00;;;;;;;14.25;97.35;101394.66;5050579;28;20028;-78
2022/07/20 06:11:31;;;;;;;1.70;0.80;;;;;;;14.33;96.48;101399.13;5052153;28;20371;-78
2022/07/20 06:13:56;;;;;;;3.35;1.10;;;;;;;14.33;95.49;101388.31;5016325;28;20036;-78
2022/07/20 06:16:22;;;;;;;3.03;1.15;;;;;;;14.40;95.43;101400.91;5034921;28;20035;-79
2022/07/20 06:18:48;;;;;;;2.35;0.80;;;;;;;14.42;95.10;101404.28;5031229;28;20072;-79
2022/07/20 06:21:14;;;;;;;2.05;0.80;;;;;;;14.54;94.01;101414.69;5035876;28;20105;-78
2022/07/20 06:23:40;;;;;;;2.38;0.75;;;;;;;14.58;93.03;101413.25;5057934;28;20028;-79
2022/07/20 06:26:06;;;;;;;1.58;0.70;;;;;;;14.40;94.32;101417.16;5054892;28;20037;-78
2022/07/20 06:28:32;;;;;;;0.82;0.70;;;;;;;14.36;94.67;101421.25;5018406;28;20112;-78
2022/07/20 06:30:57;;;;;;;1.77;0.70;;;;;;;14.36;95.52;101433.94;5054211;28;20067;-78
2022/07/20 06:33:23;;;;;;;4.03;0.93;;;;;;;14.26;97.21;101431.47;5067871;28;20429;-78
2022/07/20 06:35:49;;;;;;;4.53;1.00;;;;;;;13.99;99.35;101422.09;5062360;28;20047;-78
2022/07/20 06:38:14;;;;;;;2.30;0.80;;;;;;;13.82;100.00;101432.22;5019247;28;20050;-77
2022/07/20 06:40:40;;;;;;;3.47;1.10;;;;;;;13.66;100.00;101422.38;5065224;28;20385;-78
2022/07/20 06:43:06;;;;;;;2.17;1.45;;;;;;;13.69;100.00;101426.56;5026411;28;20090;-77
2022/07/20 06:49:20;;;;;;;;;;;;;;;;;;;;;
2022/07/20 06:52:12;;;;;;;3.33;1.20;;;;;;;14.12;100.00;101443.13;5021531;28;20119;-79
2022/07/20 06:55:13;;;;;;;2.45;0.95;;;;;;;14.30;100.00;101419.28;4994764;28;20137;-80
2022/07/20 06:58:14;;;;;;;2.03;1.00;;;;;;;14.50;100.00;101417.72;4992633;28;20120;-78
2022/07/20 07:01:01;;;;;;;2.50;1.20;;;;;;;14.78;100.00;101443.34;4978683;28;20045;-78
2022/07/20 07:04:22;;;;;;;2.38;1.00;;;;;;;14.86;100.00;101435.94;5008116;28;20037;-78
2022/07/20 07:07:32;;;;;;;2.03;1.05;;;;;;;15.01;100.00;101444.06;4966361;28;20137;-78
2022/07/20 07:10:16;;;;;;;5.13;1.30;;;;;;;15.02;98.60;101407.00;4993004;28;20233;-78
2022/07/20 07:12:52;;;;;;;1.20;0.80;;;;;;;15.31;96.61;101393.38;5015177;28;20039;-81
2022/07/20 07:15:20;;;;;;;3.17;1.00;;;;;;;15.76;95.32;101445.59;5013674;28;20025;-79
2022/07/20 07:17:46;;;;;;;4.30;1.17;;;;;;;15.58;95.89;101431.59;5011610;28;20098;-79
2022/07/20 07:20:12;;;;;;;1.88;0.80;;;;;;;15.41;95.20;101443.72;5046414;28;20036;-78
2022/07/20 07:22:38;;;;;;;1.17;0.90;;;;;;;15.21;97.12;101444.31;5033802;28;20041;-80
2022/07/20 07:25:04;;;;;;;4.90;0.98;;;;;;;15.01;97.37;101448.66;5045610;28;20036;-79
2022/07/20 07:27:29;;;;;;;2.47;0.88;;;;;;;14.73;98.65;101435.75;5045473;28;20052;-79
2022/07/20 07:29:55;;;;;;;2.13;1.08;;;;;;;14.80;98.70;101454.81;5013630;28;20036;-78
2022/07/20 07:32:21;;;;;;;2.10;1.00;;;;;;;14.77;99.89;101463.31;5061940;28;20029;-80
2022/07/20 07:34:47;;;;;;;1.88;0.75;;;;;;;14.76;99.56;101458.91;5027479;28;20087;-80
2022/07/20 07:37:12;;;;;;;3.58;0.90;;;;;;;14.70;100.00;101453.22;5030818;28;20035;-80
2022/07/20 07:39:38;;;;;;;1.20;0.60;;;;;;;14.56;100.00;101435.13;5023771;28;22127;-79
2022/07/20 07:42:04;;;;;;;3.92;0.90;;;;;;;14.72;100.00;101475.53;5029346;28;20579;-78
2022/07/20 07:44:29;;;;;;;2.03;0.65;;;;;;;14.81;100.00;101473.56;5032183;28;20036;-78
2022/07/20 07:46:55;;;;;;;1.42;0.80;;;;;;;14.97;100.00;101466.28;5011650;28;20037;-78
2022/07/20 07:49:21;;;;;;;1.20;0.77;;;;;;;15.07;100.00;101469.56;5014756;28;20040;-79
2022/07/20 07:51:47;;;;;;;0.98;0.68;;;;;;;15.04;100.00;101478.06;5029954;28;20021;-78
2022/07/20 07:54:12;;;;;;;2.72;0.77;;;;;;;14.92;99.34;101473.13;5015711;28;20033;-78
2022/07/20 07:56:38;;;;;;;2.83;0.75;;;;;;;15.23;96.96;101493.72;5042606;28;20132;-78
2022/07/20 07:59:04;;;;;;;1.77;0.70;;;;;;;15.44;95.56;101502.97;5073294;28;20043;-78
2022/07/20 08:01:30;;;;;;;1.25;0.68;;;;;;;15.86;90.17;101493.25;5015214;28;20125;-79
2022/07/20 08:03:55;;;;;;;2.05;0.70;;;;;;;16.48;88.98;101492.56;5055085;28;20094;-81
2022/07/20 08:06:22;;;;;;;4.25;1.67;;;;;;;17.17;85.98;101501.81;5032018;28;20085;-80
2022/07/20 08:08:48;;;;;;;1.83;0.70;;;;;;;18.08;79.17;101504.25;5055215;28;20028;-78
2022/07/20 08:11:17;;;;;;;1.75;0.90;;;;;;;19.96;71.56;101493.53;5053610;28;20027;-79
2022/07/20 08:13:45;;;;;;;0.63;0.60;;;;;;;20.69;65.61;101512.06;5038320;28;20097;-80
2022/07/20 08:16:13;;;;;;;1.92;0.60;;;;;;;19.70;67.84;101506.28;5036075;28;20412;-78
2022/07/20 08:18:41;;;;;;;2.72;0.80;;;;;;;19.13;70.00;101527.00;5071862;28;20032;-80
2022/07/20 08:21:07;;;;;;;1.60;0.80;;;;;;;19.00;69.62;101525.19;5038304;28;20112;-78
2022/07/20 08:23:32;;;;;;;2.33;0.60;;;;;;;18.43;71.97;101521.22;5025495;28;20128;-79
2022/07/20 08:25:58;;;;;;;3.00;0.70;;;;;;;18.25;74.84;101519.09;5055623;28;20470;-79
2022/07/20 08:28:24;;;;;;;2.40;0.90;;;;;;;19.12;72.72;101525.34;5018329;28;20016;-79
2022/07/20 08:30:52;;;;;;;1.02;0.60;;;;;;;19.99;66.78;101514.91;5043247;28;20467;-78
2022/07/20 08:33:18;;;;;;;1.83;1.02;;;;;;;18.93;69.71;101520.78;5041068;28;20037;-80
2022/07/20 08:35:44;;;;;;;0.98;0.63;;;;;;;17.95;73.64;101532.25;5036241;28;20127;-78
2022/07/20 08:38:09;;;;;;;1.23;0.60;;;;;;;17.41;75.69;101536.66;5033445;28;20031;-78
2022/07/20 08:40:36;;;;;;;4.78;0.70;;;;;;;17.30;78.13;101526.34;5019969;28;20731;-78
2022/07/20 08:43:02;;;;;;;4.10;0.70;;;;;;;17.82;74.33;101534.94;5038514;28;20071;-77
2022/07/20 08:45:28;;;;;;;2.03;0.57;;;;;;;18.63;71.51;101532.13;5044175;28;20040;-78
2022/07/20 08:47:57;;;;;;;1.55;0.90;;;;;;;20.48;65.34;101534.31;5042278;28;20051;-79
2022/07/20 08:50:24;;;;;;;1.83;0.55;;;;;;;20.62;61.06;101525.81;5030752;28;20032;-78
2022/07/20 08:52:50;;;;;;;1.08;0.50;;;;;;;20.17;60.26;101534.13;5017860;28;20125;-78
2022/07/20 08:55:16;;;;;;;1.63;0.60;;;;;;;19.78;63.46;101535.19;5034464;28;20105;-79
2022/07/20 08:57:42;;;;;;;0.68;0.47;;;;;;;19.46;64.46;101534.28;5015871;28;20165;-78
2022/07/20 09:00:09;;;;;;;0.70;0.60;;;;;;;19.21;64.53;101537.72;5037106;28;20059;-78
2022/07/20 09:02:55;;;;;;;1.38;0.60;;;;;;;19.13;66.18;101537.91;5046703;28;20059;-78
2022/07/20 09:05:23;;;;;;;1.83;0.57;;;;;;;19.46;64.83;101548.75;5032356;28;20032;-79
2022/07/20 09:07:52;;;;;;;1.02;0.60;;;;;;;19.73;63.28;101532.28;5012378;28;20116;-79
2022/07/20 09:10:29;;;;;;;0.65;0.50;;;;;;;19.42;62.85;101547.47;5036945;28;20041;-79
2022/07/20 09:12:55;;;;;;;0.60;0.47;;;;;;;18.48;65.71;101535.03;5051698;28;20029;-79
2022/07/20 09:15:39;;;;;;;0.63;0.57;;;;;;;17.63;71.75;101545.53;5047798;28;20122;-79
2022/07/20 09:18:07;;;;;;;1.70;0.70;;;;;;;17.39;72.76;101554.22;5018773;28;20060;-78
2022/07/20 09:20:34;;;;;;;1.17;0.82;;;;;;;17.51;74.33;101553.41;5036891;28;20051;-78
2022/07/20 09:23:03;;;;;;;2.20;0.88;;;;;;;17.84;72.14;101552.75;5023054;28;20032;-79
2022/07/20 09:25:28;;;;;;;6.68;0.80;;;;;;;18.15;71.48;101551.34;5059916;28;20036;-77
2022/07/20 09:27:55;;;;;;;0.63;0.60;;;;;;;18.92;69.98;101551.81;5065947;28;20028;-78
2022/07/20 09:30:21;;;;;;;2.45;1.35;;;;;;;20.48;63.21;101550.69;5035454;28;20048;-78
2022/07/20 09:32:56;;;;;;;3.55;1.70;;;;;;;21.21;58.24;101559.09;5037669;28;20029;-79
2022/07/20 09:35:25;;;;;;;2.20;0.60;;;;;;;20.78;58.90;101559.94;5017400;28;20474;-80
2022/07/20 09:37:50;;;;;;;1.33;0.50;;;;;;;20.53;60.27;101562.63;5056990;28;20044;-79
2022/07/20 09:40:16;;;;;;;2.10;0.77;;;;;;;20.23;60.74;101559.69;5033202;28;20024;-80
2022/07/20 09:42:46;;;;;;;2.72;0.70;;;;;;;19.83;61.58;101561.84;5052894;28;20033;-79
2022/07/20 09:45:27;;;;;;;2.33;0.88;;;;;;;19.38;61.19;101559.88;5031061;28;20406;-80
2022/07/20 09:48:00;;;;;;;1.10;0.45;;;;;;;19.28;61.43;101560.31;5034923;28;20032;-80
2022/07/20 09:50:39;;;;;;;0.98;0.47;;;;;;;19.46;58.91;101567.00;5053382;28;20028;-78
2022/07/20 09:53:07;;;;;;;2.45;0.60;;;;;;;19.31;59.67;101545.44;5012429;28;20075;-79
2022/07/20 09:55:33;;;;;;;2.05;0.52;;;;;;;19.56;59.47;101572.84;5015818;28;20033;-79
2022/07/20 09:57:59;;;;;;;1.67;0.60;;;;;;;19.66;61.14;101565.06;5033468;28;20045;-80
2022/07/20 10:00:33;;;;;;;1.58;0.77;;;;;;;20.05;56.26;101565.06;5048400;28;20385;-77
2022/07/20 10:03:01;;;;;;;0.95;0.60;;;;;;;20.26;57.64;101569.34;5013075;28;20466;-76
2022/07/20 10:05:31;;;;;;;2.38;0.95;;;;;;;20.75;56.49;101565.03;5016493;28;20051;-77
2022/07/20 10:08:03;;;;;;;0.60;0.60;;;;;;;21.56;52.75;101566.69;5019260;28;20021;-77
2022/07/20 10:10:29;;;;;;;1.42;0.70;;;;;;;22.53;48.59;101569.38;5032570;28;20048;-76
2022/07/20 10:12:56;;;;;;;0.50;0.50;;;;;;;21.70;52.21;101565.50;5023414;28;20032;-76
2022/07/20 10:15:29;;;;;;;1.00;0.50;;;;;;;20.97;53.78;101571.75;5029129;28;20116;-75
2022/07/20 10:17:55;;;;;;;1.25;0.50;;;;;;;20.73;54.51;101570.69;5030655;28;20048;-75
2022/07/20 10:20:35;;;;;;;0.73;0.50;;;;;;;21.17;52.73;101574.28;5023589;28;20036;-74
2022/07/20 10:23:16;;;;;;;1.52;0.80;;;;;;;22.52;49.89;101591.50;5029947;28;20115;-74
2022/07/20 10:25:46;;;;;;;0.73;0.55;;;;;;;22.82;46.30;101585.97;5033805;28;20081;-75
2022/07/20 10:28:41;;;;;;;1.20;0.50;;;;;;;22.01;49.70;101577.28;5037473;28;20151;-76
2022/07/20 10:31:16;;;;;;;0.60;0.50;;;;;;;21.37;49.67;101575.97;5005160;28;20093;-77
2022/07/20 10:33:42;;;;;;;0.50;0.50;;;;;;;20.99;51.96;101577.00;5029446;28;20020;-79
2022/07/20 10:39:38;;;;;;;0.40;0.40;;;;;;;20.18;55.17;101597.75;5038617;28;20052;-76
2022/07/20 10:42:37;;;;;;;1.45;0.50;;;;;;;19.42;57.13;101598.47;5033764;28;20158;-77
2022/07/20 10:45:19;;;;;;;0.40;0.40;;;;;;;19.22;57.72;101607.53;5026673;28;20055;-76
2022/07/20 10:48:12;;;;;;;0.98;0.60;;;;;;;18.98;57.97;101616.38;5027612;28;20041;-81
2022/07/20 10:50:40;;;;;;;1.23;0.57;;;;;;;18.81;59.25;101615.94;5030381;28;20032;-79
2022/07/20 10:53:15;;;;;;;2.40;0.70;;;;;;;18.77;59.73;101606.53;5050540;28;20081;-79
2022/07/20 10:56:00;;;;;;;0.50;0.50;;;;;;;19.08;59.63;101614.91;5049438;28;20475;-81
2022/07/20 10:58:28;;;;;;;0.85;0.50;;;;;;;19.36;57.73;101615.69;5024802;28;20368;-79
2022/07/20 11:00:59;;;;;;;0.45;0.43;;;;;;;19.55;57.90;101610.19;5024885;28;20040;-79
2022/07/20 11:03:29;;;;;;;0.52;0.52;;;;;;;19.87;57.42;101620.38;5047404;28;20058;-78
2022/07/20 11:06:19;;;;;;;1.13;0.60;;;;;;;20.11;55.07;101614.19;5026641;28;20025;-80
2022/07/20 11:08:53;;;;;;;2.15;0.60;;;;;;;20.31;54.68;101616.78;5021313;28;20410;-79
2022/07/20 11:11:22;;;;;;;0.85;0.60;;;;;;;20.55;53.64;101617.09;5035183;28;20490;-79
2022/07/20 11:13:48;;;;;;;0.60;0.60;;;;;;;20.78;52.22;101606.41;5048688;28;20103;-81
2022/07/20 11:16:17;;;;;;;0.93;0.50;;;;;;;21.04;50.80;101605.34;5033037;28;20471;-79
2022/07/20 11:18:43;;;;;;;1.92;0.70;;;;;;;21.34;52.14;101614.72;5054467;28;20068;-81
2022/07/20 11:21:11;;;;;;;0.55;0.50;;;;;;;21.61;50.47;101615.28;5048872;28;20505;-78
2022/07/20 11:23:50;;;;;;;0.57;0.57;;;;;;;21.85;48.45;101622.56;5051357;28;20512;-78
2022/07/20 11:26:20;;;;;;;0.90;0.60;;;;;;;21.66;48.00;101618.19;5019006;28;20036;-80
2022/07/20 11:28:48;;;;;;;2.58;0.57;;;;;;;21.08;50.44;101636.63;5065823;28;20032;-80
2022/07/20 11:31:14;;;;;;;0.65;0.60;;;;;;;20.60;51.31;101609.91;5030560;28;20037;-78
2022/07/20 11:33:42;;;;;;;0.98;0.60;;;;;;;20.47;52.84;101630.97;5048156;28;20024;-80
2022/07/20 11:36:27;;;;;;;2.90;0.70;;;;;;;20.30;54.39;101608.84;5055850;28;20028;-80
2022/07/20 11:38:55;;;;;;;0.60;0.60;;;;;;;20.72;53.89;101633.78;5019323;28;20028;-80
2022/07/20 11:41:24;;;;;;;1.17;0.68;;;;;;;20.85;52.19;101631.78;5027418;28;20090;-79